sensor_id;sensor_type;location;lat;lon;timestamp;P1;durP1;ratioP1;P2;durP2;ratioP2
60478;SDS011;46321;48.398;11.754;2024-01-30T00:02:08;26.15;;;11.88;;
60478;SDS011;46321;48.398;11.754;2024-01-30T00:04:34;23.98;;;12.30;;
60478;SDS011;46321;48.398;11.754;2024-01-30T00:06:59;23.08;;;12.32;;
60478;SDS011;46321;48.398;11.754;2024-01-30T00:09:24;24.92;;;11.73;;
60478;SDS011;46321;48.398;11.754;2024-01-30T00:11:49;23.05;;;11.73;;
60478;SDS011;46321;48.398;11.754;2024-01-30T00:14:15;22.88;;;11.73;;
60478;SDS011;46321;48.398;11.754;2024-01-30T00:16:40;23.90;;;11.45;;
60478;SDS011;46321;48.398;11.754;2024-01-30T00:19:05;25.50;;;12.32;;
60478;SDS011;46321;48.398;11.754;2024-01-30T00:21:31;24.40;;;12.45;;
60478;SDS011;46321;48.398;11.754;2024-01-30T00:23:56;24.85;;;12.45;;
60478;SDS011;46321;48.398;11.754;2024-01-30T00:26:21;25.17;;;12.45;;
60478;SDS011;46321;48.398;11.754;2024-01-30T00:28:46;19.70;;;11.55;;
60478;SDS011;46321;48.398;11.754;2024-01-30T00:31:12;21.52;;;11.63;;
60478;SDS011;46321;48.398;11.754;2024-01-30T00:33:37;22.65;;;11.73;;
60478;SDS011;46321;48.398;11.754;2024-01-30T00:36:04;24.45;;;11.15;;
60478;SDS011;46321;48.398;11.754;2024-01-30T00:38:30;23.15;;;11.60;;
60478;SDS011;46321;48.398;11.754;2024-01-30T00:40:55;23.63;;;10.98;;
60478;SDS011;46321;48.398;11.754;2024-01-30T00:43:21;21.23;;;11.07;;
60478;SDS011;46321;48.398;11.754;2024-01-30T00:45:46;22.83;;;12.02;;
60478;SDS011;46321;48.398;11.754;2024-01-30T00:48:11;27.63;;;11.77;;
60478;SDS011;46321;48.398;11.754;2024-01-30T00:50:37;22.95;;;11.88;;
60478;SDS011;46321;48.398;11.754;2024-01-30T00:53:02;23.65;;;12.23;;
60478;SDS011;46321;48.398;11.754;2024-01-30T00:55:27;24.65;;;12.05;;
60478;SDS011;46321;48.398;11.754;2024-01-30T00:57:52;24.23;;;12.15;;
60478;SDS011;46321;48.398;11.754;2024-01-30T01:00:18;27.92;;;12.30;;
60478;SDS011;46321;48.398;11.754;2024-01-30T01:02:43;24.58;;;11.65;;
60478;SDS011;46321;48.398;11.754;2024-01-30T01:05:09;22.63;;;12.57;;
60478;SDS011;46321;48.398;11.754;2024-01-30T01:07:35;23.35;;;11.25;;
60478;SDS011;46321;48.398;11.754;2024-01-30T01:10:00;21.33;;;11.43;;
60478;SDS011;46321;48.398;11.754;2024-01-30T01:12:27;28.13;;;12.90;;
60478;SDS011;46321;48.398;11.754;2024-01-30T01:14:52;23.58;;;11.90;;
60478;SDS011;46321;48.398;11.754;2024-01-30T01:17:18;24.48;;;12.65;;
60478;SDS011;46321;48.398;11.754;2024-01-30T01:19:46;26.60;;;12.27;;
60478;SDS011;46321;48.398;11.754;2024-01-30T01:22:11;24.05;;;11.73;;
60478;SDS011;46321;48.398;11.754;2024-01-30T01:24:36;25.40;;;11.55;;
60478;SDS011;46321;48.398;11.754;2024-01-30T01:27:02;27.10;;;11.93;;
60478;SDS011;46321;48.398;11.754;2024-01-30T01:29:27;22.35;;;11.80;;
60478;SDS011;46321;48.398;11.754;2024-01-30T01:31:56;26.45;;;12.32;;
60478;SDS011;46321;48.398;11.754;2024-01-30T01:34:21;22.10;;;11.68;;
60478;SDS011;46321;48.398;11.754;2024-01-30T01:36:48;29.33;;;12.10;;
60478;SDS011;46321;48.398;11.754;2024-01-30T01:39:14;24.55;;;12.48;;
60478;SDS011;46321;48.398;11.754;2024-01-30T01:41:39;24.00;;;11.68;;
60478;SDS011;46321;48.398;11.754;2024-01-30T01:44:05;26.13;;;12.23;;
60478;SDS011;46321;48.398;11.754;2024-01-30T01:46:30;27.92;;;11.57;;
60478;SDS011;46321;48.398;11.754;2024-01-30T01:48:58;20.80;;;11.07;;
60478;SDS011;46321;48.398;11.754;2024-01-30T01:51:24;26.65;;;12.57;;
60478;SDS011;46321;48.398;11.754;2024-01-30T01:53:52;24.38;;;11.32;;
60478;SDS011;46321;48.398;11.754;2024-01-30T01:56:18;26.83;;;12.05;;
60478;SDS011;46321;48.398;11.754;2024-01-30T01:58:44;21.15;;;11.45;;
60478;SDS011;46321;48.398;11.754;2024-01-30T02:01:12;19.48;;;11.35;;
60478;SDS011;46321;48.398;11.754;2024-01-30T02:03:39;22.42;;;11.60;;
60478;SDS011;46321;48.398;11.754;2024-01-30T02:06:05;37.50;;;13.25;;
60478;SDS011;46321;48.398;11.754;2024-01-30T02:08:31;27.55;;;12.05;;
60478;SDS011;46321;48.398;11.754;2024-01-30T02:10:56;24.75;;;11.25;;
60478;SDS011;46321;48.398;11.754;2024-01-30T02:13:22;21.13;;;11.73;;
60478;SDS011;46321;48.398;11.754;2024-01-30T02:15:50;20.67;;;11.38;;
60478;SDS011;46321;48.398;11.754;2024-01-30T02:18:16;23.33;;;11.80;;
60478;SDS011;46321;48.398;11.754;2024-01-30T02:20:41;22.90;;;11.40;;
60478;SDS011;46321;48.398;11.754;2024-01-30T02:23:08;23.77;;;11.32;;
60478;SDS011;46321;48.398;11.754;2024-01-30T02:25:37;22.02;;;10.43;;
60478;SDS011;46321;48.398;11.754;2024-01-30T02:28:04;25.25;;;11.48;;
60478;SDS011;46321;48.398;11.754;2024-01-30T02:30:29;20.25;;;10.82;;
60478;SDS011;46321;48.398;11.754;2024-01-30T02:32:54;27.75;;;12.18;;
60478;SDS011;46321;48.398;11.754;2024-01-30T02:35:20;25.08;;;12.05;;
60478;SDS011;46321;48.398;11.754;2024-01-30T02:37:45;24.98;;;12.32;;
60478;SDS011;46321;48.398;11.754;2024-01-30T02:40:10;25.17;;;12.85;;
60478;SDS011;46321;48.398;11.754;2024-01-30T02:42:35;25.08;;;12.02;;
60478;SDS011;46321;48.398;11.754;2024-01-30T02:45:01;24.98;;;12.30;;
60478;SDS011;46321;48.398;11.754;2024-01-30T02:47:26;28.20;;;12.43;;
60478;SDS011;46321;48.398;11.754;2024-01-30T02:49:51;23.70;;;11.50;;
60478;SDS011;46321;48.398;11.754;2024-01-30T02:52:16;28.20;;;12.68;;
60478;SDS011;46321;48.398;11.754;2024-01-30T02:54:42;26.52;;;13.38;;
60478;SDS011;46321;48.398;11.754;2024-01-30T02:57:07;24.42;;;13.02;;
60478;SDS011;46321;48.398;11.754;2024-01-30T02:59:33;23.48;;;12.40;;
60478;SDS011;46321;48.398;11.754;2024-01-30T03:02:00;24.50;;;12.07;;
60478;SDS011;46321;48.398;11.754;2024-01-30T03:04:26;23.98;;;12.20;;
60478;SDS011;46321;48.398;11.754;2024-01-30T03:06:51;24.83;;;13.00;;
60478;SDS011;46321;48.398;11.754;2024-01-30T03:09:16;24.88;;;12.23;;
60478;SDS011;46321;48.398;11.754;2024-01-30T03:11:42;24.48;;;11.85;;
60478;SDS011;46321;48.398;11.754;2024-01-30T03:14:08;27.17;;;12.32;;
60478;SDS011;46321;48.398;11.754;2024-01-30T03:16:35;29.02;;;13.32;;
60478;SDS011;46321;48.398;11.754;2024-01-30T03:19:01;24.30;;;12.43;;
60478;SDS011;46321;48.398;11.754;2024-01-30T03:21:28;25.83;;;12.55;;
60478;SDS011;46321;48.398;11.754;2024-01-30T03:23:53;27.17;;;12.43;;
60478;SDS011;46321;48.398;11.754;2024-01-30T03:26:19;25.08;;;12.00;;
60478;SDS011;46321;48.398;11.754;2024-01-30T03:28:44;30.52;;;12.93;;
60478;SDS011;46321;48.398;11.754;2024-01-30T03:31:09;23.08;;;12.00;;
60478;SDS011;46321;48.398;11.754;2024-01-30T03:33:36;25.13;;;11.70;;
60478;SDS011;46321;48.398;11.754;2024-01-30T03:36:04;22.52;;;11.55;;
60478;SDS011;46321;48.398;11.754;2024-01-30T03:38:30;24.60;;;12.75;;
60478;SDS011;46321;48.398;11.754;2024-01-30T03:40:57;29.30;;;12.77;;
60478;SDS011;46321;48.398;11.754;2024-01-30T03:43:22;23.67;;;12.48;;
60478;SDS011;46321;48.398;11.754;2024-01-30T03:45:48;27.50;;;14.05;;
60478;SDS011;46321;48.398;11.754;2024-01-30T03:48:13;27.20;;;13.00;;
60478;SDS011;46321;48.398;11.754;2024-01-30T03:50:38;29.02;;;12.32;;
60478;SDS011;46321;48.398;11.754;2024-01-30T03:53:04;27.63;;;12.40;;
60478;SDS011;46321;48.398;11.754;2024-01-30T03:55:29;24.23;;;12.25;;
60478;SDS011;46321;48.398;11.754;2024-01-30T03:57:54;26.13;;;12.05;;
60478;SDS011;46321;48.398;11.754;2024-01-30T04:00:19;27.60;;;12.10;;
60478;SDS011;46321;48.398;11.754;2024-01-30T04:02:45;25.58;;;12.63;;
60478;SDS011;46321;48.398;11.754;2024-01-30T04:05:10;26.95;;;12.25;;
60478;SDS011;46321;48.398;11.754;2024-01-30T04:07:35;24.92;;;12.43;;
60478;SDS011;46321;48.398;11.754;2024-01-30T04:10:00;28.35;;;12.77;;
60478;SDS011;46321;48.398;11.754;2024-01-30T04:12:26;24.15;;;12.25;;
60478;SDS011;46321;48.398;11.754;2024-01-30T04:14:51;28.92;;;12.88;;
60478;SDS011;46321;48.398;11.754;2024-01-30T04:17:16;23.58;;;12.45;;
60478;SDS011;46321;48.398;11.754;2024-01-30T04:19:41;29.35;;;12.95;;
60478;SDS011;46321;48.398;11.754;2024-01-30T04:22:07;23.70;;;11.48;;
60478;SDS011;46321;48.398;11.754;2024-01-30T04:24:37;23.55;;;12.45;;
60478;SDS011;46321;48.398;11.754;2024-01-30T04:27:21;21.88;;;11.40;;
60478;SDS011;46321;48.398;11.754;2024-01-30T04:40:30;24.58;;;11.10;;
60478;SDS011;46321;48.398;11.754;2024-01-30T04:42:55;23.67;;;10.85;;
60478;SDS011;46321;48.398;11.754;2024-01-30T04:45:20;26.63;;;11.18;;
60478;SDS011;46321;48.398;11.754;2024-01-30T04:47:45;25.95;;;12.02;;
60478;SDS011;46321;48.398;11.754;2024-01-30T04:50:11;25.00;;;12.10;;
60478;SDS011;46321;48.398;11.754;2024-01-30T04:52:36;24.55;;;12.13;;
60478;SDS011;46321;48.398;11.754;2024-01-30T04:55:01;24.88;;;11.45;;
60478;SDS011;46321;48.398;11.754;2024-01-30T04:57:27;22.92;;;11.90;;
60478;SDS011;46321;48.398;11.754;2024-01-30T04:59:52;24.02;;;12.20;;
60478;SDS011;46321;48.398;11.754;2024-01-30T05:02:18;26.40;;;12.60;;
60478;SDS011;46321;48.398;11.754;2024-01-30T05:04:43;24.42;;;12.20;;
60478;SDS011;46321;48.398;11.754;2024-01-30T05:07:08;24.40;;;11.45;;
60478;SDS011;46321;48.398;11.754;2024-01-30T05:09:34;22.13;;;11.23;;
60478;SDS011;46321;48.398;11.754;2024-01-30T05:11:59;20.13;;;11.40;;
60478;SDS011;46321;48.398;11.754;2024-01-30T05:14:24;25.70;;;12.68;;
60478;SDS011;46321;48.398;11.754;2024-01-30T05:16:50;24.48;;;12.05;;
60478;SDS011;46321;48.398;11.754;2024-01-30T05:19:15;23.42;;;12.55;;
60478;SDS011;46321;48.398;11.754;2024-01-30T05:21:41;24.55;;;11.73;;
60478;SDS011;46321;48.398;11.754;2024-01-30T05:24:06;24.85;;;11.95;;
60478;SDS011;46321;48.398;11.754;2024-01-30T05:26:32;22.88;;;11.63;;
60478;SDS011;46321;48.398;11.754;2024-01-30T05:28:57;22.80;;;11.15;;
60478;SDS011;46321;48.398;11.754;2024-01-30T05:31:23;25.13;;;12.05;;
60478;SDS011;46321;48.398;11.754;2024-01-30T05:33:48;22.30;;;12.13;;
60478;SDS011;46321;48.398;11.754;2024-01-30T05:36:13;22.02;;;11.43;;
60478;SDS011;46321;48.398;11.754;2024-01-30T05:38:39;26.95;;;12.30;;
60478;SDS011;46321;48.398;11.754;2024-01-30T05:41:04;24.80;;;12.80;;
60478;SDS011;46321;48.398;11.754;2024-01-30T05:43:29;25.63;;;12.57;;
60478;SDS011;46321;48.398;11.754;2024-01-30T05:45:55;27.70;;;12.95;;
60478;SDS011;46321;48.398;11.754;2024-01-30T05:48:20;25.23;;;12.45;;
60478;SDS011;46321;48.398;11.754;2024-01-30T05:50:45;29.85;;;13.85;;
60478;SDS011;46321;48.398;11.754;2024-01-30T05:53:11;25.27;;;12.30;;
60478;SDS011;46321;48.398;11.754;2024-01-30T05:55:36;28.42;;;13.30;;
60478;SDS011;46321;48.398;11.754;2024-01-30T05:58:02;27.98;;;13.85;;
60478;SDS011;46321;48.398;11.754;2024-01-30T06:00:27;26.02;;;12.85;;
60478;SDS011;46321;48.398;11.754;2024-01-30T06:02:52;26.75;;;13.63;;
60478;SDS011;46321;48.398;11.754;2024-01-30T06:05:17;22.73;;;12.32;;
60478;SDS011;46321;48.398;11.754;2024-01-30T06:07:43;26.20;;;12.60;;
60478;SDS011;46321;48.398;11.754;2024-01-30T06:10:08;28.65;;;12.65;;
60478;SDS011;46321;48.398;11.754;2024-01-30T06:12:34;26.58;;;13.55;;
60478;SDS011;46321;48.398;11.754;2024-01-30T06:15:00;21.83;;;11.90;;
60478;SDS011;46321;48.398;11.754;2024-01-30T06:17:25;30.17;;;13.15;;
60478;SDS011;46321;48.398;11.754;2024-01-30T06:19:51;28.17;;;12.95;;
60478;SDS011;46321;48.398;11.754;2024-01-30T06:22:16;27.13;;;13.70;;
60478;SDS011;46321;48.398;11.754;2024-01-30T06:24:41;24.50;;;12.80;;
60478;SDS011;46321;48.398;11.754;2024-01-30T06:27:07;40.55;;;18.60;;
60478;SDS011;46321;48.398;11.754;2024-01-30T06:29:32;36.22;;;17.73;;
60478;SDS011;46321;48.398;11.754;2024-01-30T06:31:57;27.27;;;13.43;;
60478;SDS011;46321;48.398;11.754;2024-01-30T06:34:23;43.63;;;17.27;;
60478;SDS011;46321;48.398;11.754;2024-01-30T06:36:48;30.25;;;14.30;;
60478;SDS011;46321;48.398;11.754;2024-01-30T06:39:13;29.95;;;13.93;;
60478;SDS011;46321;48.398;11.754;2024-01-30T06:41:38;34.40;;;14.77;;
60478;SDS011;46321;48.398;11.754;2024-01-30T06:44:04;30.02;;;14.13;;
60478;SDS011;46321;48.398;11.754;2024-01-30T06:46:31;31.63;;;14.07;;
60478;SDS011;46321;48.398;11.754;2024-01-30T06:48:57;31.02;;;13.82;;
60478;SDS011;46321;48.398;11.754;2024-01-30T06:51:22;28.98;;;13.90;;
60478;SDS011;46321;48.398;11.754;2024-01-30T06:53:48;30.25;;;13.77;;
60478;SDS011;46321;48.398;11.754;2024-01-30T06:56:13;29.30;;;13.68;;
60478;SDS011;46321;48.398;11.754;2024-01-30T06:58:38;33.95;;;14.48;;
60478;SDS011;46321;48.398;11.754;2024-01-30T07:01:04;28.70;;;13.98;;
60478;SDS011;46321;48.398;11.754;2024-01-30T07:03:29;28.77;;;14.70;;
60478;SDS011;46321;48.398;11.754;2024-01-30T07:05:54;35.72;;;14.98;;
60478;SDS011;46321;48.398;11.754;2024-01-30T07:08:20;28.10;;;13.90;;
60478;SDS011;46321;48.398;11.754;2024-01-30T07:10:45;32.15;;;15.27;;
60478;SDS011;46321;48.398;11.754;2024-01-30T07:13:11;26.67;;;14.60;;
60478;SDS011;46321;48.398;11.754;2024-01-30T07:15:36;42.42;;;18.60;;
60478;SDS011;46321;48.398;11.754;2024-01-30T07:18:02;37.08;;;18.55;;
60478;SDS011;46321;48.398;11.754;2024-01-30T07:20:29;34.22;;;16.13;;
60478;SDS011;46321;48.398;11.754;2024-01-30T07:22:55;29.38;;;14.68;;
60478;SDS011;46321;48.398;11.754;2024-01-30T07:25:20;28.63;;;14.68;;
60478;SDS011;46321;48.398;11.754;2024-01-30T07:27:46;26.75;;;13.68;;
60478;SDS011;46321;48.398;11.754;2024-01-30T07:30:12;29.60;;;14.30;;
60478;SDS011;46321;48.398;11.754;2024-01-30T07:32:37;25.70;;;13.38;;
60478;SDS011;46321;48.398;11.754;2024-01-30T07:35:02;29.65;;;14.45;;
60478;SDS011;46321;48.398;11.754;2024-01-30T07:37:28;27.02;;;14.15;;
60478;SDS011;46321;48.398;11.754;2024-01-30T07:39:53;26.67;;;13.27;;
60478;SDS011;46321;48.398;11.754;2024-01-30T07:42:19;28.30;;;12.82;;
60478;SDS011;46321;48.398;11.754;2024-01-30T07:44:44;23.90;;;13.55;;
60478;SDS011;46321;48.398;11.754;2024-01-30T07:47:09;24.27;;;12.95;;
60478;SDS011;46321;48.398;11.754;2024-01-30T07:49:34;22.30;;;12.63;;
60478;SDS011;46321;48.398;11.754;2024-01-30T07:52:00;24.05;;;12.90;;
60478;SDS011;46321;48.398;11.754;2024-01-30T07:54:25;22.52;;;12.07;;
60478;SDS011;46321;48.398;11.754;2024-01-30T07:56:50;28.38;;;14.10;;
60478;SDS011;46321;48.398;11.754;2024-01-30T07:59:16;22.52;;;12.88;;
60478;SDS011;46321;48.398;11.754;2024-01-30T08:01:41;21.77;;;13.27;;
60478;SDS011;46321;48.398;11.754;2024-01-30T08:04:06;22.35;;;13.75;;
60478;SDS011;46321;48.398;11.754;2024-01-30T08:06:31;22.30;;;12.68;;
60478;SDS011;46321;48.398;11.754;2024-01-30T08:08:57;22.35;;;13.93;;
60478;SDS011;46321;48.398;11.754;2024-01-30T08:11:24;24.67;;;13.70;;
60478;SDS011;46321;48.398;11.754;2024-01-30T08:13:51;29.75;;;13.95;;
60478;SDS011;46321;48.398;11.754;2024-01-30T08:16:19;25.63;;;13.65;;
60478;SDS011;46321;48.398;11.754;2024-01-30T08:18:44;25.10;;;13.65;;
60478;SDS011;46321;48.398;11.754;2024-01-30T08:21:10;53.70;;;27.80;;
60478;SDS011;46321;48.398;11.754;2024-01-30T08:23:35;29.50;;;16.38;;
60478;SDS011;46321;48.398;11.754;2024-01-30T08:26:00;22.23;;;12.68;;
60478;SDS011;46321;48.398;11.754;2024-01-30T08:28:26;20.83;;;12.73;;
60478;SDS011;46321;48.398;11.754;2024-01-30T08:30:51;20.30;;;12.98;;
60478;SDS011;46321;48.398;11.754;2024-01-30T08:33:17;20.90;;;13.50;;
60478;SDS011;46321;48.398;11.754;2024-01-30T08:35:42;22.17;;;12.88;;
60478;SDS011;46321;48.398;11.754;2024-01-30T08:38:07;18.00;;;12.90;;
60478;SDS011;46321;48.398;11.754;2024-01-30T08:40:32;20.15;;;12.88;;
60478;SDS011;46321;48.398;11.754;2024-01-30T08:42:58;19.00;;;12.73;;
60478;SDS011;46321;48.398;11.754;2024-01-30T08:45:23;19.63;;;12.70;;
60478;SDS011;46321;48.398;11.754;2024-01-30T08:47:48;19.85;;;13.13;;
60478;SDS011;46321;48.398;11.754;2024-01-30T08:50:14;19.67;;;12.55;;
60478;SDS011;46321;48.398;11.754;2024-01-30T08:52:39;17.33;;;12.13;;
60478;SDS011;46321;48.398;11.754;2024-01-30T08:55:04;18.92;;;11.65;;
60478;SDS011;46321;48.398;11.754;2024-01-30T08:57:30;16.90;;;11.93;;
60478;SDS011;46321;48.398;11.754;2024-01-30T08:59:55;17.20;;;12.07;;
60478;SDS011;46321;48.398;11.754;2024-01-30T09:02:21;16.70;;;11.27;;
60478;SDS011;46321;48.398;11.754;2024-01-30T09:04:46;18.33;;;11.13;;
60478;SDS011;46321;48.398;11.754;2024-01-30T09:07:11;18.10;;;11.88;;
60478;SDS011;46321;48.398;11.754;2024-01-30T09:09:38;20.35;;;12.00;;
60478;SDS011;46321;48.398;11.754;2024-01-30T09:12:05;15.68;;;11.48;;
60478;SDS011;46321;48.398;11.754;2024-01-30T09:14:34;26.85;;;17.90;;
60478;SDS011;46321;48.398;11.754;2024-01-30T09:16:59;27.70;;;18.65;;
60478;SDS011;46321;48.398;11.754;2024-01-30T09:19:24;21.50;;;13.10;;
60478;SDS011;46321;48.398;11.754;2024-01-30T09:21:50;20.75;;;12.68;;
60478;SDS011;46321;48.398;11.754;2024-01-30T09:24:15;16.17;;;11.73;;
60478;SDS011;46321;48.398;11.754;2024-01-30T09:26:40;14.40;;;11.27;;
60478;SDS011;46321;48.398;11.754;2024-01-30T09:29:05;14.32;;;9.95;;
60478;SDS011;46321;48.398;11.754;2024-01-30T09:31:31;15.93;;;10.50;;
60478;SDS011;46321;48.398;11.754;2024-01-30T09:33:56;15.17;;;10.27;;
60478;SDS011;46321;48.398;11.754;2024-01-30T09:36:21;14.33;;;9.77;;
60478;SDS011;46321;48.398;11.754;2024-01-30T09:38:47;13.18;;;9.45;;
60478;SDS011;46321;48.398;11.754;2024-01-30T09:41:12;12.73;;;9.48;;
60478;SDS011;46321;48.398;11.754;2024-01-30T09:43:38;12.20;;;9.82;;
60478;SDS011;46321;48.398;11.754;2024-01-30T09:46:04;14.32;;;9.30;;
60478;SDS011;46321;48.398;11.754;2024-01-30T09:48:30;11.02;;;8.98;;
60478;SDS011;46321;48.398;11.754;2024-01-30T09:50:58;10.98;;;9.35;;
60478;SDS011;46321;48.398;11.754;2024-01-30T09:53:23;17.17;;;10.82;;
60478;SDS011;46321;48.398;11.754;2024-01-30T09:55:49;14.10;;;9.93;;
60478;SDS011;46321;48.398;11.754;2024-01-30T09:58:15;12.35;;;10.02;;
60478;SDS011;46321;48.398;11.754;2024-01-30T10:00:41;12.90;;;9.88;;
60478;SDS011;46321;48.398;11.754;2024-01-30T10:03:06;13.83;;;9.53;;
60478;SDS011;46321;48.398;11.754;2024-01-30T10:05:31;14.50;;;8.90;;
60478;SDS011;46321;48.398;11.754;2024-01-30T10:08:00;10.63;;;8.82;;
60478;SDS011;46321;48.398;11.754;2024-01-30T10:10:26;11.90;;;9.40;;
60478;SDS011;46321;48.398;11.754;2024-01-30T10:12:51;13.13;;;9.13;;
60478;SDS011;46321;48.398;11.754;2024-01-30T10:15:19;11.23;;;8.32;;
60478;SDS011;46321;48.398;11.754;2024-01-30T10:17:45;10.80;;;8.38;;
60478;SDS011;46321;48.398;11.754;2024-01-30T10:20:11;12.63;;;8.18;;
60478;SDS011;46321;48.398;11.754;2024-01-30T10:22:36;12.50;;;8.20;;
60478;SDS011;46321;48.398;11.754;2024-01-30T10:25:02;9.43;;;7.67;;
60478;SDS011;46321;48.398;11.754;2024-01-30T10:27:28;10.73;;;8.32;;
60478;SDS011;46321;48.398;11.754;2024-01-30T10:29:54;12.32;;;8.25;;
60478;SDS011;46321;48.398;11.754;2024-01-30T10:32:20;11.45;;;8.07;;
60478;SDS011;46321;48.398;11.754;2024-01-30T10:34:46;10.88;;;8.15;;
60478;SDS011;46321;48.398;11.754;2024-01-30T10:37:12;11.05;;;8.43;;
60478;SDS011;46321;48.398;11.754;2024-01-30T10:39:40;9.25;;;8.20;;
60478;SDS011;46321;48.398;11.754;2024-01-30T10:42:07;8.00;;;6.95;;
60478;SDS011;46321;48.398;11.754;2024-01-30T10:47:11;9.90;;;8.68;;
60478;SDS011;46321;48.398;11.754;2024-01-30T10:49:40;11.52;;;7.70;;
60478;SDS011;46321;48.398;11.754;2024-01-30T10:52:08;9.95;;;7.40;;
60478;SDS011;46321;48.398;11.754;2024-01-30T10:54:34;10.32;;;7.78;;
60478;SDS011;46321;48.398;11.754;2024-01-30T10:57:00;17.95;;;13.80;;
60478;SDS011;46321;48.398;11.754;2024-01-30T10:59:28;12.38;;;9.82;;
60478;SDS011;46321;48.398;11.754;2024-01-30T11:01:55;15.77;;;8.88;;
60478;SDS011;46321;48.398;11.754;2024-01-30T11:04:22;14.00;;;9.35;;
60478;SDS011;46321;48.398;11.754;2024-01-30T11:06:48;9.90;;;8.50;;
60478;SDS011;46321;48.398;11.754;2024-01-30T11:09:16;14.60;;;9.43;;
60478;SDS011;46321;48.398;11.754;2024-01-30T11:11:55;10.85;;;9.52;;
60478;SDS011;46321;48.398;11.754;2024-01-30T11:14:29;10.65;;;8.80;;
60478;SDS011;46321;48.398;11.754;2024-01-30T11:16:58;10.32;;;8.63;;
60478;SDS011;46321;48.398;11.754;2024-01-30T11:19:24;12.27;;;8.40;;
60478;SDS011;46321;48.398;11.754;2024-01-30T11:21:51;11.52;;;9.18;;
60478;SDS011;46321;48.398;11.754;2024-01-30T11:24:21;11.60;;;8.68;;
60478;SDS011;46321;48.398;11.754;2024-01-30T11:26:55;9.88;;;8.50;;
60478;SDS011;46321;48.398;11.754;2024-01-30T11:29:25;12.20;;;8.50;;
60478;SDS011;46321;48.398;11.754;2024-01-30T11:31:52;9.85;;;8.45;;
60478;SDS011;46321;48.398;11.754;2024-01-30T11:34:18;9.25;;;8.10;;
60478;SDS011;46321;48.398;11.754;2024-01-30T11:36:44;10.98;;;8.80;;
60478;SDS011;46321;48.398;11.754;2024-01-30T11:39:11;13.25;;;8.82;;
60478;SDS011;46321;48.398;11.754;2024-01-30T11:41:37;13.57;;;10.38;;
60478;SDS011;46321;48.398;11.754;2024-01-30T11:44:03;25.95;;;19.02;;
60478;SDS011;46321;48.398;11.754;2024-01-30T11:46:28;14.65;;;9.75;;
60478;SDS011;46321;48.398;11.754;2024-01-30T11:48:54;10.83;;;8.70;;
60478;SDS011;46321;48.398;11.754;2024-01-30T11:51:19;11.53;;;9.10;;
60478;SDS011;46321;48.398;11.754;2024-01-30T11:53:45;14.52;;;9.15;;
60478;SDS011;46321;48.398;11.754;2024-01-30T11:56:14;14.70;;;8.23;;
60478;SDS011;46321;48.398;11.754;2024-01-30T11:58:42;8.45;;;6.75;;
60478;SDS011;46321;48.398;11.754;2024-01-30T12:01:08;11.10;;;7.00;;
60478;SDS011;46321;48.398;11.754;2024-01-30T12:03:34;9.80;;;6.20;;
60478;SDS011;46321;48.398;11.754;2024-01-30T12:05:59;10.37;;;5.47;;
60478;SDS011;46321;48.398;11.754;2024-01-30T12:08:24;6.88;;;4.97;;
60478;SDS011;46321;48.398;11.754;2024-01-30T12:10:56;8.63;;;5.07;;
60478;SDS011;46321;48.398;11.754;2024-01-30T12:13:23;9.05;;;4.97;;
60478;SDS011;46321;48.398;11.754;2024-01-30T12:15:48;9.35;;;4.68;;
60478;SDS011;46321;48.398;11.754;2024-01-30T12:18:14;7.90;;;4.25;;
60478;SDS011;46321;48.398;11.754;2024-01-30T12:20:43;7.22;;;4.07;;
60478;SDS011;46321;48.398;11.754;2024-01-30T12:23:09;7.72;;;4.03;;
60478;SDS011;46321;48.398;11.754;2024-01-30T12:25:37;7.78;;;4.35;;
60478;SDS011;46321;48.398;11.754;2024-01-30T12:28:02;7.45;;;4.80;;
60478;SDS011;46321;48.398;11.754;2024-01-30T12:30:28;6.57;;;4.45;;
60478;SDS011;46321;48.398;11.754;2024-01-30T12:32:54;8.07;;;5.03;;
60478;SDS011;46321;48.398;11.754;2024-01-30T12:35:19;7.37;;;4.97;;
60478;SDS011;46321;48.398;11.754;2024-01-30T12:37:45;8.30;;;4.35;;
60478;SDS011;46321;48.398;11.754;2024-01-30T12:40:12;9.95;;;4.20;;
60478;SDS011;46321;48.398;11.754;2024-01-30T12:42:42;7.40;;;4.20;;
60478;SDS011;46321;48.398;11.754;2024-01-30T12:45:11;8.13;;;5.20;;
60478;SDS011;46321;48.398;11.754;2024-01-30T12:47:36;7.40;;;5.05;;
60478;SDS011;46321;48.398;11.754;2024-01-30T12:50:01;8.95;;;5.43;;
60478;SDS011;46321;48.398;11.754;2024-01-30T12:52:27;8.35;;;4.65;;
60478;SDS011;46321;48.398;11.754;2024-01-30T12:54:52;9.75;;;5.70;;
60478;SDS011;46321;48.398;11.754;2024-01-30T12:57:18;10.05;;;5.80;;
60478;SDS011;46321;48.398;11.754;2024-01-30T12:59:44;8.68;;;5.35;;
60478;SDS011;46321;48.398;11.754;2024-01-30T13:02:10;9.68;;;5.45;;
60478;SDS011;46321;48.398;11.754;2024-01-30T13:04:35;9.77;;;5.38;;
60478;SDS011;46321;48.398;11.754;2024-01-30T13:07:01;10.07;;;5.47;;
60478;SDS011;46321;48.398;11.754;2024-01-30T13:09:29;9.20;;;5.78;;
60478;SDS011;46321;48.398;11.754;2024-01-30T13:11:55;10.18;;;5.53;;
60478;SDS011;46321;48.398;11.754;2024-01-30T13:14:20;9.75;;;5.95;;
60478;SDS011;46321;48.398;11.754;2024-01-30T13:16:45;7.95;;;5.60;;
60478;SDS011;46321;48.398;11.754;2024-01-30T13:19:11;8.75;;;5.50;;
60478;SDS011;46321;48.398;11.754;2024-01-30T13:21:36;8.57;;;5.32;;
60478;SDS011;46321;48.398;11.754;2024-01-30T13:24:01;9.52;;;5.35;;
60478;SDS011;46321;48.398;11.754;2024-01-30T13:26:27;7.22;;;5.03;;
60478;SDS011;46321;48.398;11.754;2024-01-30T13:28:52;9.50;;;5.38;;
60478;SDS011;46321;48.398;11.754;2024-01-30T13:31:18;7.20;;;5.10;;
60478;SDS011;46321;48.398;11.754;2024-01-30T13:33:44;9.82;;;5.20;;
60478;SDS011;46321;48.398;11.754;2024-01-30T13:36:10;8.60;;;5.63;;
60478;SDS011;46321;48.398;11.754;2024-01-30T13:38:36;8.25;;;5.35;;
60478;SDS011;46321;48.398;11.754;2024-01-30T13:41:02;8.75;;;5.53;;
60478;SDS011;46321;48.398;11.754;2024-01-30T13:43:27;8.13;;;5.57;;
60478;SDS011;46321;48.398;11.754;2024-01-30T13:45:53;9.20;;;6.28;;
60478;SDS011;46321;48.398;11.754;2024-01-30T13:48:19;11.18;;;6.95;;
60478;SDS011;46321;48.398;11.754;2024-01-30T13:50:44;11.40;;;6.95;;
60478;SDS011;46321;48.398;11.754;2024-01-30T13:53:10;11.85;;;7.50;;
60478;SDS011;46321;48.398;11.754;2024-01-30T13:55:36;12.18;;;8.40;;
60478;SDS011;46321;48.398;11.754;2024-01-30T13:58:01;13.38;;;7.68;;
60478;SDS011;46321;48.398;11.754;2024-01-30T14:00:27;10.57;;;7.15;;
60478;SDS011;46321;48.398;11.754;2024-01-30T14:02:52;13.23;;;8.27;;
60478;SDS011;46321;48.398;11.754;2024-01-30T14:05:19;13.18;;;8.18;;
60478;SDS011;46321;48.398;11.754;2024-01-30T14:07:46;17.83;;;8.38;;
60478;SDS011;46321;48.398;11.754;2024-01-30T14:10:12;16.20;;;8.38;;
60478;SDS011;46321;48.398;11.754;2024-01-30T14:12:37;15.65;;;8.10;;
60478;SDS011;46321;48.398;11.754;2024-01-30T14:15:03;13.73;;;8.68;;
60478;SDS011;46321;48.398;11.754;2024-01-30T14:17:28;16.52;;;8.55;;
60478;SDS011;46321;48.398;11.754;2024-01-30T14:19:53;11.55;;;7.97;;